Roseau, MN

11:07 PM CDT on June 24, 2017 (GMT -0500)
Roseau Municipal-Billberg

Weather History for KROX - April, 2012

Change the Weather History Date:

Sunday, April 29, 2012

  Actual Average Record
Temperature  
Mean Temperature 55 °F -  
Max Temperature 64 °F 57 °F 89 °F (1952)
Min Temperature 46 °F 32 °F 6 °F (1958)
Degree Days  
Heating Degree Days 10    
Growing Degree Days 5 (Base 50)    
Moisture  
Dew Point 40 °F    
Average Humidity 60    
Maximum Humidity 93    
Minimum Humidity 48    
Precipitation  
Precipitation 0.01 in - - ()
Sea Level Pressure  
Sea Level Pressure 30.06 in    
Wind  
Wind Speed 11 mph (South)    
Max Wind Speed 18 mph    
Max Gust Speed 25 mph    
Visibility 10 miles    
Events Rain    
Averages and records for this station are not official NWS values.
T = Trace of Precipitation, MM = Missing Value Source: NWS Daily Summary

Daily Weather History Graph

Daily Weather History Graph

Search for Another Location

Airport or City:

Trip Planner

Search our weather history database for the weather conditions in past years. The results will help you decide how hot, cold, wet, or windy it might be!

Date:

Astronomy

Apr. 29, 2012 Rise Set
Actual Time 6:04 AM CDT 8:36 PM CDT
Civil Twilight 5:29 AM CDT 9:11 PM CDT
Nautical Twilight 4:45 AM CDT 9:56 PM CDT
Astronomical Twilight 3:53 AM CDT 10:48 PM CDT
Moon 12:54 PM CDT (4/29) 2:33 AM CDT (4/29)
Length of Visible Light 15h 42m
Length of Day
14h 31m
First Quarter, 53% of the Moon is Illuminated
Apr 29
First Quarter
May 5
Full
May 12
Last Quarter
May 20
New
May 28
First Quarter

Hourly Weather History & Observations

Time (CDT) Temp. Windchill Dew Point Humidity Pressure Visibility Wind Dir Wind Speed Gust Speed Precip Events Conditions
12:14 AM 51.8 °F - 33.8 °F 50% 30.14 in 10.0 mi SE 8.1 mph - N/A   Overcast
12:33 AM 51.8 °F - 33.8 °F 50% 30.14 in 10.0 mi SE 9.2 mph - N/A   Overcast
12:54 AM 51.8 °F - 33.8 °F 50% 30.14 in 10.0 mi SE 6.9 mph - N/A   Overcast
1:34 AM 51.8 °F - 33.8 °F 50% 30.14 in 10.0 mi South 9.2 mph - N/A   Overcast
1:54 AM 51.8 °F - 33.8 °F 50% 30.14 in 10.0 mi SSE 10.4 mph - N/A   Overcast
2:14 AM 51.8 °F - 35.6 °F 54% 30.14 in 10.0 mi SSE 10.4 mph - N/A   Overcast
2:34 AM 51.8 °F - 33.8 °F 50% 30.14 in 10.0 mi SE 8.1 mph - N/A   Overcast
2:54 AM 50.0 °F - 33.8 °F 54% 30.14 in 10.0 mi SE 10.4 mph - N/A   Overcast
3:14 AM 50.0 °F - 33.8 °F 54% 30.14 in 10.0 mi SE 10.4 mph - N/A   Overcast
3:34 AM 48.2 °F - 33.8 °F 58% 30.14 in 10.0 mi SE 10.4 mph - N/A   Overcast
3:54 AM 48.2 °F - 32.0 °F 54% 30.14 in 10.0 mi SE 10.4 mph - N/A   Overcast
4:14 AM 48.2 °F - 32.0 °F 54% 30.14 in 10.0 mi SE 9.2 mph - N/A   Overcast
4:34 AM 48.2 °F - 32.0 °F 54% 30.14 in 10.0 mi SE 8.1 mph - N/A   Mostly Cloudy
4:54 AM 48.2 °F - 32.0 °F 54% 30.14 in 10.0 mi SE 8.1 mph - N/A   Mostly Cloudy
5:14 AM 48.2 °F - 33.8 °F 58% 30.14 in 10.0 mi SE 8.1 mph - N/A   Overcast
5:34 AM 46.4 °F 41.9 °F 33.8 °F 62% 30.14 in 10.0 mi SE 9.2 mph - N/A   Overcast
5:54 AM 48.2 °F - 37.4 °F 66% 30.14 in 10.0 mi SSE 11.5 mph 18.4 mph N/A   Overcast
6:14 AM 48.2 °F - 37.4 °F 66% 30.14 in 10.0 mi SSE 10.4 mph - N/A   Overcast
6:34 AM 48.2 °F - 37.4 °F 66% 30.14 in 10.0 mi SSE 10.4 mph - N/A   Overcast
6:54 AM 48.2 °F - 39.2 °F 71% 30.13 in 10.0 mi SSE 11.5 mph - N/A   Overcast
7:14 AM 46.4 °F 42.4 °F 33.8 °F 62% 30.14 in 10.0 mi ESE 8.1 mph - N/A   Overcast
7:34 AM 46.4 °F 40.7 °F 33.8 °F 62% 30.14 in 10.0 mi SE 12.7 mph - N/A   Overcast
7:55 AM 46.4 °F 41.1 °F 35.6 °F 66% 30.13 in 10.0 mi SE 11.5 mph - N/A   Unknown
8:14 AM 46.4 °F 41.1 °F 35.6 °F 66% 30.13 in 10.0 mi SE 11.5 mph - N/A   Unknown
8:34 AM 46.4 °F 40.4 °F 35.6 °F 66% 30.12 in 10.0 mi SE 13.8 mph - N/A   Overcast
8:54 AM 48.2 °F - 35.6 °F 62% 30.12 in 10.0 mi SE 11.5 mph - N/A   Mostly Cloudy
9:14 AM 48.2 °F - 37.4 °F 66% 30.12 in 10.0 mi SSE 12.7 mph - N/A   Mostly Cloudy
9:34 AM 50.0 °F - 39.2 °F 66% 30.12 in 10.0 mi SSE 13.8 mph - N/A   Mostly Cloudy
9:54 AM 51.8 °F - 39.2 °F 62% 30.12 in 10.0 mi SSE 12.7 mph - N/A   Scattered Clouds
10:14 AM 51.8 °F - 39.2 °F 62% 30.12 in 10.0 mi SSE 16.1 mph - N/A   Clear
10:34 AM 53.6 °F - 39.2 °F 58% 30.11 in 10.0 mi South 16.1 mph 21.9 mph N/A   Clear
10:54 AM 53.6 °F - 41.0 °F 62% 30.12 in 10.0 mi SSE 18.4 mph 23.0 mph N/A   Clear
11:14 AM 55.4 °F - 41.0 °F 58% 30.11 in 10.0 mi South 15.0 mph 23.0 mph N/A   Clear
11:34 AM 55.4 °F - 42.8 °F 63% 30.11 in 10.0 mi SSE 16.1 mph 24.2 mph N/A   Clear
11:54 AM 57.2 °F - 42.8 °F 59% 30.10 in 10.0 mi SSE 17.3 mph - N/A   Clear
12:14 PM 57.2 °F - 42.8 °F 59% 30.09 in 10.0 mi South 11.5 mph 18.4 mph N/A   Clear
12:34 PM 59.0 °F - 42.8 °F 55% 30.08 in 10.0 mi South 16.1 mph 23.0 mph N/A   Clear
12:54 PM 60.8 °F - 44.6 °F 55% 30.08 in 10.0 mi South 12.7 mph - N/A   Clear
1:14 PM 59.0 °F - 44.6 °F 59% 30.07 in 10.0 mi South 17.3 mph 20.7 mph N/A   Clear
1:34 PM 60.8 °F - 44.6 °F 55% 30.06 in 10.0 mi South 15.0 mph 24.2 mph N/A   Scattered Clouds
1:54 PM 60.8 °F - 44.6 °F 55% 30.04 in 10.0 mi South 13.8 mph 20.7 mph N/A   Clear
2:14 PM 62.6 °F - 44.6 °F 52% 30.04 in 10.0 mi South 15.0 mph 21.9 mph N/A   Scattered Clouds
2:34 PM 62.6 °F - 44.6 °F 52% 30.03 in 10.0 mi South 17.3 mph - N/A   Scattered Clouds
2:54 PM 64.4 °F - 44.6 °F 49% 30.02 in 10.0 mi SSW 15.0 mph 25.3 mph N/A   Clear
3:14 PM 64.4 °F - 44.6 °F 49% 30.02 in 10.0 mi South 15.0 mph 24.2 mph N/A   Clear
3:34 PM 64.4 °F - 44.6 °F 49% 30.02 in 10.0 mi South 16.1 mph 25.3 mph N/A   Scattered Clouds
3:54 PM 64.4 °F - 44.6 °F 49% 30.01 in 10.0 mi South 12.7 mph 21.9 mph N/A   Scattered Clouds
4:14 PM 62.6 °F - 44.6 °F 52% 30.01 in 10.0 mi South 16.1 mph 23.0 mph N/A   Scattered Clouds
4:34 PM 62.6 °F - 42.8 °F 48% 30.01 in 10.0 mi SSW 16.1 mph 20.7 mph N/A   Mostly Cloudy
4:54 PM 62.6 °F - 44.6 °F 52% 30.00 in 10.0 mi South 11.5 mph - N/A   Mostly Cloudy
5:14 PM 60.8 °F - 46.4 °F 59% 29.99 in 10.0 mi South 12.7 mph - N/A   Mostly Cloudy
5:34 PM 62.6 °F - 44.6 °F 52% 29.98 in 10.0 mi SSW 10.4 mph - N/A   Mostly Cloudy
5:54 PM 62.6 °F - 42.8 °F 48% 29.97 in 10.0 mi SW 15.0 mph - N/A   Mostly Cloudy
6:14 PM 60.8 °F - 42.8 °F 52% 29.97 in 10.0 mi SSW 13.8 mph - N/A   Mostly Cloudy
6:34 PM 60.8 °F - 42.8 °F 52% 29.97 in 10.0 mi SSW 15.0 mph - N/A   Mostly Cloudy
6:54 PM 60.8 °F - 44.6 °F 55% 29.96 in 10.0 mi SSW 11.5 mph - N/A   Mostly Cloudy
7:14 PM 60.8 °F - 44.6 °F 55% 29.96 in 10.0 mi SW 11.5 mph 17.3 mph N/A   Scattered Clouds
7:35 PM 59.0 °F - 44.6 °F 59% 29.96 in 10.0 mi WSW 6.9 mph - N/A   Scattered Clouds
7:54 PM 57.2 °F - 46.4 °F 67% 29.96 in 10.0 mi WSW 11.5 mph 16.1 mph N/A   Scattered Clouds
8:14 PM 55.4 °F - 46.4 °F 72% 29.95 in 10.0 mi SW 10.4 mph - N/A   Clear
8:33 PM 55.4 °F - 46.4 °F 72% 29.95 in 10.0 mi WSW 8.1 mph - N/A   Clear
9:14 PM 55.4 °F - 46.4 °F 72% 29.95 in 10.0 mi SW 5.8 mph - N/A   Scattered Clouds
9:35 PM 53.6 °F - 46.4 °F 77% 29.95 in 10.0 mi WSW 10.4 mph - N/A Rain Light Rain
9:54 PM 55.4 °F - 46.4 °F 72% 29.94 in 10.0 mi WSW 13.8 mph 19.6 mph N/A   Scattered Clouds
10:14 PM 53.6 °F - 46.4 °F 77% 29.94 in 10.0 mi SW 12.7 mph - N/A Rain Light Rain
10:33 PM 51.8 °F - 46.4 °F 82% 29.94 in 10.0 mi SW 13.8 mph 17.3 mph N/A Rain Light Rain
10:54 PM 50.0 °F - 46.4 °F 87% 29.91 in 7.0 mi SSE 10.4 mph - 0.01 in Rain Rain
11:14 PM 48.2 °F - 44.6 °F 87% 29.92 in 10.0 mi South 8.1 mph - N/A   Scattered Clouds
11:34 PM 46.4 °F 42.4 °F 44.6 °F 93% 29.91 in 7.0 mi SSE 8.1 mph - N/A   Scattered Clouds
11:54 PM 46.4 °F 42.9 °F 42.8 °F 87% 29.90 in 7.0 mi South 6.9 mph - N/A   Scattered Clouds